Time;durP1;ratioP1;P1;durP2;ratioP2;P2;SDS_P1;SDS_P2;PMS_P1;PMS_P2;Temp;Humidity;BMP_temperature;BMP_pressure;BME280_temperature;BME280_humidity;BME280_pressure;Samples;Min_cycle;Max_cycle;Signal;HPM_P1;HPM_P2
2022/10/21 00:01:34;;;;;;;0.57;0.57;;;11.80;99.90;;;;;;5071575;27;20816;-81
2022/10/21 00:04:02;;;;;;;0.60;0.60;;;11.80;99.90;;;;;;5079835;27;20039;-82
2022/10/21 00:06:28;;;;;;;0.60;0.60;;;11.80;99.90;;;;;;5058696;27;20150;-82
2022/10/21 00:08:54;;;;;;;0.60;0.60;;;11.70;99.90;;;;;;5059113;27;20658;-82
2022/10/21 00:11:20;;;;;;;0.60;0.60;;;11.80;99.90;;;;;;5081000;27;20534;-83
2022/10/21 00:13:47;;;;;;;0.60;0.60;;;11.90;99.90;;;;;;5081669;27;20059;-83
2022/10/21 00:16:15;;;;;;;0.55;0.55;;;11.80;99.90;;;;;;5064099;27;20055;-82
2022/10/21 00:18:43;;;;;;;0.60;0.60;;;11.70;99.90;;;;;;5074531;27;20039;-83
2022/10/21 00:21:17;;;;;;;0.55;0.55;;;11.80;99.90;;;;;;5074819;27;20294;-82
2022/10/21 00:23:44;;;;;;;0.60;0.60;;;11.70;99.90;;;;;;5080115;27;20051;-82
2022/10/21 00:26:12;;;;;;;0.50;0.50;;;11.80;99.90;;;;;;5075523;27;20038;-82
2022/10/21 00:28:38;;;;;;;0.60;0.60;;;11.90;99.90;;;;;;5053864;27;20134;-82
2022/10/21 00:31:09;;;;;;;0.60;0.60;;;11.90;99.90;;;;;;5079446;27;20045;-82
2022/10/21 00:33:35;;;;;;;0.60;0.60;;;11.90;99.90;;;;;;5074790;27;20128;-83
2022/10/21 00:36:02;;;;;;;0.60;0.60;;;11.80;99.90;;;;;;5076502;27;20133;-82
2022/10/21 00:38:30;;;;;;;0.50;0.50;;;11.80;99.90;;;;;;5073604;27;20079;-82
2022/10/21 00:40:56;;;;;;;0.57;0.57;;;11.80;99.90;;;;;;5077029;27;20036;-82
2022/10/21 00:43:24;;;;;;;0.60;0.60;;;11.80;99.90;;;;;;5062002;27;20055;-82
2022/10/21 00:45:55;;;;;;;0.60;0.60;;;11.80;99.90;;;;;;5078777;27;20035;-82
2022/10/21 00:48:35;;;;;;;0.50;0.50;;;11.70;99.90;;;;;;5042455;27;20557;-82
2022/10/21 00:51:15;;;;;;;0.60;0.60;;;11.80;99.90;;;;;;5029990;27;20053;-83
2022/10/21 00:53:46;;;;;;;0.60;0.60;;;11.90;99.90;;;;;;5044322;27;20078;-82
2022/10/21 00:56:19;;;;;;;0.50;0.50;;;11.80;99.90;;;;;;5089185;27;20042;-83
2022/10/21 00:58:47;;;;;;;0.60;0.60;;;11.90;99.90;;;;;;5100205;27;21029;-83
2022/10/21 01:01:14;;;;;;;0.60;0.60;;;11.80;99.90;;;;;;5083187;27;21221;-83
2022/10/21 01:03:40;;;;;;;0.60;0.60;;;11.80;99.90;;;;;;5081096;27;20483;-83
2022/10/21 01:06:09;;;;;;;0.60;0.60;;;11.80;99.90;;;;;;5077794;27;20037;-83
2022/10/21 01:08:35;;;;;;;0.60;0.60;;;11.70;99.90;;;;;;5100202;27;20111;-82
2022/10/21 01:11:02;;;;;;;0.55;0.55;;;11.80;99.90;;;;;;5080007;27;20107;-84
2022/10/21 01:13:49;;;;;;;0.50;0.50;;;11.80;99.90;;;;;;5078685;27;20892;-82
2022/10/21 01:16:39;;;;;;;0.60;0.60;;;11.80;99.90;;;;;;5081308;27;20051;-82
2022/10/21 01:19:34;;;;;;;0.60;0.60;;;11.90;99.90;;;;;;5070590;27;20137;-83
2022/10/21 01:22:23;;;;;;;0.50;0.50;;;11.90;99.90;;;;;;5076041;27;20525;-82
2022/10/21 01:25:10;;;;;;;0.50;0.50;;;12.00;99.90;;;;;;5087942;27;20068;-82
2022/10/21 01:27:57;;;;;;;0.50;0.50;;;11.90;99.90;;;;;;5080707;27;20784;-81
2022/10/21 01:30:49;;;;;;;0.60;0.60;;;12.00;99.90;;;;;;5081784;27;20042;-81
2022/10/21 01:33:27;;;;;;;0.60;0.60;;;12.00;99.90;;;;;;5103496;27;20589;-82
2022/10/21 01:36:04;;;;;;;0.50;0.50;;;12.00;99.90;;;;;;5075262;27;20503;-83
2022/10/21 01:38:53;;;;;;;0.60;0.60;;;11.90;99.90;;;;;;5080854;27;20054;-83
2022/10/21 01:42:03;;;;;;;0.60;0.60;;;12.00;99.90;;;;;;5084052;27;20130;-84
2022/10/21 01:44:38;;;;;;;0.50;0.50;;;12.00;99.90;;;;;;5027176;27;20111;-83
2022/10/21 01:47:08;;;;;;;0.60;0.60;;;12.10;99.90;;;;;;5080304;27;20049;-84
2022/10/21 01:49:48;;;;;;;0.60;0.60;;;12.10;99.90;;;;;;5066643;27;20047;-84
2022/10/21 01:52:16;;;;;;;0.60;0.60;;;12.10;99.90;;;;;;5079478;27;20043;-84
2022/10/21 01:54:51;;;;;;;0.60;0.60;;;12.20;99.90;;;;;;5072443;27;20543;-83
2022/10/21 01:57:20;;;;;;;0.60;0.60;;;12.20;99.90;;;;;;5053877;27;20046;-84
2022/10/21 01:59:51;;;;;;;0.60;0.60;;;12.20;99.90;;;;;;5046713;27;20035;-84
2022/10/21 02:02:29;;;;;;;0.60;0.60;;;12.20;99.90;;;;;;5049883;27;20821;-84
2022/10/21 02:05:00;;;;;;;0.60;0.60;;;12.30;99.90;;;;;;5056800;27;20361;-84
2022/10/21 02:07:26;;;;;;;0.60;0.60;;;12.20;99.90;;;;;;5042547;27;20106;-84
2022/10/21 02:09:54;;;;;;;0.60;0.60;;;12.30;99.90;;;;;;5038952;27;20117;-85
2022/10/21 02:12:23;;;;;;;0.60;0.60;;;12.30;99.90;;;;;;5067740;27;20516;-84
2022/10/21 02:14:53;;;;;;;0.60;0.60;;;12.40;99.90;;;;;;5032549;27;20051;-84
2022/10/21 02:17:24;;;;;;;0.60;0.60;;;12.40;99.90;;;;;;5054482;27;20419;-84
2022/10/21 02:19:50;;;;;;;0.50;0.50;;;12.40;99.90;;;;;;5028999;27;20478;-84
2022/10/21 02:22:20;;;;;;;0.50;0.50;;;12.50;99.90;;;;;;5056304;27;20046;-85
2022/10/21 02:24:57;;;;;;;0.50;0.50;;;12.40;99.90;;;;;;5040935;27;20075;-87
2022/10/21 02:28:11;;;;;;;0.50;0.50;;;12.50;99.90;;;;;;5056576;27;20487;-92
2022/10/21 02:31:37;;;;;;;0.50;0.50;;;12.60;99.90;;;;;;5048063;27;20471;-94
2022/10/21 02:38:25;;;;;;;0.60;0.60;;;12.60;99.90;;;;;;4927549;28;20047;-94
2022/10/21 02:41:15;;;;;;;0.60;0.60;;;12.70;99.90;;;;;;4898276;28;20057;-94
2022/10/21 02:44:10;;;;;;;0.55;0.55;;;12.70;99.90;;;;;;4890324;28;20054;-91
2022/10/21 02:46:58;;;;;;;0.50;0.50;;;12.80;99.90;;;;;;4893811;28;20619;-91
2022/10/21 02:50:11;;;;;;;0.60;0.60;;;12.80;99.90;;;;;;4889341;28;21318;-91
2022/10/21 02:53:23;;;;;;;0.50;0.50;;;12.80;99.90;;;;;;4876391;28;20932;-91
2022/10/21 02:55:58;;;;;;;0.50;0.50;;;12.80;99.90;;;;;;4864809;28;20689;-89
2022/10/21 03:08:33;;;;;;;0.50;0.50;;;12.80;99.90;;;;;;4853549;28;20786;-89
2022/10/21 03:11:07;;;;;;;0.50;0.50;;;12.80;99.90;;;;;;4910982;28;20065;-88
2022/10/21 03:13:57;;;;;;;0.50;0.50;;;12.60;99.90;;;;;;4939109;27;20057;-89
2022/10/21 03:16:48;;;;;;;0.50;0.50;;;12.50;99.90;;;;;;5058875;27;20058;-88
2022/10/21 03:19:29;;;;;;;0.60;0.60;;;12.50;99.90;;;;;;5025956;27;20099;-87
2022/10/21 03:22:23;;;;;;;0.50;0.50;;;12.50;99.90;;;;;;5031365;27;20550;-88
2022/10/21 03:25:30;;;;;;;0.50;0.50;;;12.50;99.90;;;;;;5041456;27;20034;-87
2022/10/21 03:28:38;;;;;;;0.60;0.60;;;12.50;99.90;;;;;;5052218;27;20049;-87
2022/10/21 03:31:15;;;;;;;0.55;0.55;;;12.40;99.90;;;;;;5042106;27;20046;-87
2022/10/21 03:34:10;;;;;;;0.50;0.50;;;12.50;99.90;;;;;;5049680;27;20125;-86
2022/10/21 03:36:39;;;;;;;0.50;0.50;;;12.40;99.90;;;;;;5064037;27;20046;-86
2022/10/21 03:42:51;;;;;;;0.60;0.60;;;12.40;99.90;;;;;;5055358;27;20395;-87
2022/10/21 03:45:30;;;;;;;0.50;0.50;;;12.40;99.90;;;;;;5036318;27;20153;-87
2022/10/21 03:48:04;;;;;;;0.60;0.60;;;12.50;99.90;;;;;;5044513;27;20158;-87
2022/10/21 03:50:53;;;;;;;0.50;0.50;;;12.50;99.90;;;;;;5063839;27;20571;-87
2022/10/21 03:53:19;;;;;;;0.60;0.60;;;12.50;99.90;;;;;;5041188;27;20418;-86
2022/10/21 03:55:54;;;;;;;0.50;0.50;;;12.60;99.90;;;;;;5047331;27;20046;-87
2022/10/21 03:58:28;;;;;;;0.57;0.57;;;12.50;99.90;;;;;;5046010;27;20626;-86
2022/10/21 04:00:54;;;;;;;;;;;12.40;99.90;;;;;;5060330;27;20140;-86
2022/10/21 04:03:23;;;;;;;0.55;0.55;;;12.50;99.90;;;;;;5061195;27;19927;-86
2022/10/21 04:06:07;;;;;;;0.50;0.50;;;12.50;99.90;;;;;;5046844;27;20460;-85
2022/10/21 04:08:39;;;;;;;0.50;0.50;;;12.40;99.90;;;;;;5051281;27;20059;-85
2022/10/21 04:11:17;;;;;;;0.50;0.50;;;12.40;99.90;;;;;;5044833;27;20562;-86
2022/10/21 04:13:51;;;;;;;0.60;0.60;;;12.30;99.90;;;;;;5040850;27;20039;-85
2022/10/21 04:16:22;;;;;;;0.60;0.60;;;12.30;99.90;;;;;;5037226;27;20050;-86
2022/10/21 04:18:49;;;;;;;0.60;0.60;;;12.10;99.90;;;;;;5054879;27;20058;-86
2022/10/21 04:21:24;;;;;;;0.50;0.50;;;12.20;99.90;;;;;;5046509;27;20506;-85
2022/10/21 04:24:22;;;;;;;;;;;;;;;;;;;;;
2022/10/21 04:26:55;;;;;;;0.50;0.50;;;12.10;99.90;;;;;;5055471;27;20062;-87
2022/10/21 04:29:26;;;;;;;0.60;0.60;;;12.10;99.90;;;;;;5035523;27;20051;-85
2022/10/21 04:31:55;;;;;;;0.50;0.50;;;12.00;99.90;;;;;;5036638;27;20270;-85
2022/10/21 04:34:23;;;;;;;0.65;0.65;;;12.00;99.90;;;;;;5035908;27;20050;-86
2022/10/21 04:36:49;;;;;;;0.50;0.50;;;12.00;99.90;;;;;;5039391;27;20958;-86
2022/10/21 04:39:20;;;;;;;0.50;0.50;;;11.90;99.90;;;;;;5060766;27;20043;-86
2022/10/21 04:41:57;;;;;;;0.50;0.50;;;11.90;99.90;;;;;;5041438;27;20751;-86
2022/10/21 04:44:26;;;;;;;0.60;0.60;;;11.90;99.90;;;;;;5039639;27;20116;-86
2022/10/21 04:47:02;;;;;;;0.50;0.50;;;11.90;99.90;;;;;;5046287;27;20133;-87
2022/10/21 04:49:28;;;;;;;0.60;0.60;;;11.80;99.90;;;;;;5020552;27;20497;-85
2022/10/21 04:51:57;;;;;;;0.50;0.50;;;11.90;99.90;;;;;;5035883;27;20526;-85
2022/10/21 04:54:28;;;;;;;0.60;0.60;;;11.70;99.90;;;;;;5034482;27;20057;-85
2022/10/21 04:57:09;;;;;;;0.50;0.50;;;11.70;99.90;;;;;;5052689;27;20185;-85
2022/10/21 04:59:35;;;;;;;0.50;0.50;;;11.70;99.90;;;;;;5046848;27;20518;-86
2022/10/21 05:02:10;;;;;;;0.50;0.50;;;11.70;99.90;;;;;;5070099;27;20035;-84
2022/10/21 05:05:03;;;;;;;0.60;0.60;;;11.70;99.90;;;;;;5027535;27;20745;-85
2022/10/21 05:07:45;;;;;;;0.50;0.50;;;11.70;99.90;;;;;;5051454;27;20042;-86
2022/10/21 05:10:14;;;;;;;0.50;0.50;;;11.70;99.90;;;;;;5042843;27;20038;-86
2022/10/21 05:12:54;;;;;;;0.50;0.50;;;11.60;99.90;;;;;;5053252;27;20046;-86
2022/10/21 05:15:32;;;;;;;0.50;0.50;;;11.60;99.90;;;;;;5059999;27;20050;-86
2022/10/21 05:18:12;;;;;;;0.60;0.60;;;11.70;99.90;;;;;;5053260;27;20043;-85
2022/10/21 05:20:43;;;;;;;0.50;0.50;;;11.50;99.90;;;;;;5031918;27;20035;-86
2022/10/21 05:23:33;;;;;;;0.57;0.57;;;11.60;99.90;;;;;;5047158;27;20515;-85
2022/10/21 05:26:00;;;;;;;0.60;0.60;;;11.60;99.90;;;;;;5049061;27;20073;-86
2022/10/21 05:28:34;;;;;;;0.50;0.50;;;11.50;99.90;;;;;;5053082;27;20253;-86
2022/10/21 05:31:12;;;;;;;0.60;0.60;;;11.50;99.90;;;;;;5035234;27;20182;-86
2022/10/21 05:34:00;;;;;;;0.60;0.60;;;11.40;99.90;;;;;;5053729;27;20389;-86
2022/10/21 05:36:37;;;;;;;0.50;0.50;;;11.40;99.90;;;;;;5044887;27;20332;-86
2022/10/21 05:39:10;;;;;;;0.60;0.60;;;11.40;99.90;;;;;;5040763;27;20050;-86
2022/10/21 05:41:41;;;;;;;0.50;0.50;;;11.40;99.90;;;;;;5057226;27;20062;-86
2022/10/21 05:44:20;;;;;;;0.50;0.50;;;11.30;99.90;;;;;;5005740;28;20501;-86
2022/10/21 05:46:51;;;;;;;0.50;0.50;;;11.40;99.90;;;;;;5012310;28;20508;-85
2022/10/21 05:49:35;;;;;;;0.50;0.50;;;11.40;99.90;;;;;;5015098;28;20051;-86
2022/10/21 05:52:12;;;;;;;0.50;0.50;;;11.30;99.90;;;;;;5019945;28;20351;-86
2022/10/21 05:55:28;;;;;;;0.50;0.50;;;11.50;99.90;;;;;;5012125;28;20088;-86
2022/10/21 05:58:02;;;;;;;0.55;0.55;;;11.40;99.90;;;;;;5020969;28;20055;-86
2022/10/21 06:00:32;;;;;;;0.60;0.60;;;11.50;99.90;;;;;;5018219;28;20067;-85
2022/10/21 06:06:17;;;;;;;;;;;;;;;;;;;;;
2022/10/21 06:08:49;;;;;;;0.50;0.50;;;11.40;99.90;;;;;;5034591;28;20047;-86
2022/10/21 06:14:37;;;;;;;;;;;;;;;;;;;;;
2022/10/21 06:17:38;;;;;;;2.65;2.53;;;11.60;99.90;;;;;;4988802;28;20060;-86
2022/10/21 06:20:27;;;;;;;0.50;0.50;;;11.40;99.90;;;;;;4978596;28;20486;-86
2022/10/21 06:23:11;;;;;;;;;;;;;;;;;;;;;
2022/10/21 06:26:14;;;;;;;0.50;0.50;;;11.40;99.90;;;;;;4999562;28;20774;-85
2022/10/21 06:28:58;;;;;;;0.50;0.50;;;11.60;99.90;;;;;;5026503;28;20512;-85
2022/10/21 06:31:52;;;;;;;0.50;0.50;;;11.60;99.90;;;;;;5007217;28;20048;-86
2022/10/21 06:34:34;;;;;;;0.50;0.50;;;11.60;99.90;;;;;;4976474;28;20055;-86
2022/10/21 06:37:00;;;;;;;0.50;0.50;;;11.60;99.90;;;;;;4969457;28;20044;-87
2022/10/21 06:39:37;;;;;;;0.50;0.50;;;11.80;99.90;;;;;;4987121;28;20701;-87
2022/10/21 06:42:03;;;;;;;0.60;0.60;;;11.80;99.90;;;;;;4996555;28;20062;-84
2022/10/21 06:44:38;;;;;;;0.60;0.60;;;11.90;99.90;;;;;;5017797;28;20047;-86
2022/10/21 06:47:18;;;;;;;;;;;;;;;;;;;;;
2022/10/21 06:49:54;;;;;;;0.50;0.50;;;11.80;99.90;;;;;;5003456;28;21022;-84
2022/10/21 06:52:22;;;;;;;0.50;0.50;;;11.90;99.90;;;;;;5070604;27;20098;-87
2022/10/21 06:55:11;;;;;;;0.50;0.50;;;12.10;99.90;;;;;;5064116;27;20072;-87
2022/10/21 06:57:47;;;;;;;0.60;0.60;;;12.20;99.90;;;;;;5022740;27;20047;-86
2022/10/21 07:00:19;;;;;;;0.60;0.60;;;12.30;99.90;;;;;;5039640;27;20046;-87
2022/10/21 07:02:53;;;;;;;0.50;0.50;;;12.40;99.90;;;;;;5039928;27;20364;-85
2022/10/21 07:05:56;;;;;;;;;;;;;;;;;;;;;
2022/10/21 07:08:11;;;;;;;0.57;0.57;;;12.70;99.90;;;;;;5056878;27;20714;-85
2022/10/21 07:16:25;;;;;;;0.57;0.57;;;13.00;99.90;;;;;;5013514;28;20055;-86
2022/10/21 07:18:54;;;;;;;0.60;0.60;;;13.10;99.90;;;;;;4993656;28;20060;-86
2022/10/21 07:21:30;;;;;;;0.50;0.50;;;13.10;99.90;;;;;;5005256;28;20261;-86
2022/10/21 07:23:58;;;;;;;0.50;0.50;;;13.30;99.90;;;;;;5021952;28;20410;-85
2022/10/21 07:26:28;;;;;;;0.50;0.50;;;13.30;99.90;;;;;;4962385;28;20048;-84
2022/10/21 07:28:57;;;;;;;0.93;0.93;;;13.50;99.90;;;;;;4991011;28;20059;-84
2022/10/21 07:31:31;;;;;;;0.50;0.50;;;13.60;99.90;;;;;;5027287;27;20069;-86
2022/10/21 07:33:59;;;;;;;0.50;0.50;;;13.70;99.90;;;;;;5027482;27;20051;-82
2022/10/21 07:36:28;;;;;;;0.50;0.50;;;13.80;99.90;;;;;;5085473;27;20120;-85
2022/10/21 07:39:05;;;;;;;0.50;0.50;;;13.80;99.90;;;;;;5049542;27;20842;-85
2022/10/21 07:41:38;;;;;;;0.50;0.50;;;13.60;99.90;;;;;;5026499;27;20053;-85
2022/10/21 07:44:35;;;;;;;0.50;0.50;;;13.70;99.90;;;;;;5049341;27;20051;-84
2022/10/21 07:47:13;;;;;;;0.50;0.50;;;14.00;99.90;;;;;;5044690;27;20057;-85
2022/10/21 07:49:42;;;;;;;0.50;0.50;;;14.30;99.90;;;;;;5044153;27;20469;-85
2022/10/21 07:52:11;;;;;;;0.50;0.50;;;14.40;99.90;;;;;;5022071;28;20382;-84
2022/10/21 07:54:37;;;;;;;0.50;0.50;;;14.70;99.90;;;;;;5022132;27;20386;-82
2022/10/21 07:57:06;;;;;;;0.50;0.50;;;14.80;99.90;;;;;;5015503;28;20591;-85
2022/10/21 07:59:32;;;;;;;0.50;0.50;;;15.00;99.90;;;;;;5044490;28;20118;-83
2022/10/21 08:02:05;;;;;;;0.50;0.50;;;15.10;99.90;;;;;;5041236;28;20405;-82
2022/10/21 08:04:34;;;;;;;0.50;0.50;;;15.30;99.90;;;;;;5014337;28;20784;-84
2022/10/21 08:07:00;;;;;;;0.50;0.50;;;15.20;99.90;;;;;;5008638;28;20047;-83
2022/10/21 08:09:26;;;;;;;0.50;0.50;;;15.10;99.90;;;;;;5036183;28;20436;-84
2022/10/21 08:11:52;;;;;;;0.50;0.50;;;15.10;99.90;;;;;;5006414;27;20143;-82
2022/10/21 08:14:23;;;;;;;0.50;0.50;;;15.10;99.90;;;;;;5038498;27;20054;-85
2022/10/21 08:16:53;;;;;;;0.50;0.50;;;14.90;99.90;;;;;;5029554;27;20494;-84
2022/10/21 08:19:28;;;;;;;0.40;0.40;;;15.00;99.90;;;;;;5051080;27;20354;-83
2022/10/21 08:22:02;;;;;;;0.50;0.50;;;15.00;99.90;;;;;;5053173;27;20055;-83
2022/10/21 08:24:37;;;;;;;0.50;0.50;;;15.00;99.90;;;;;;5045103;27;20122;-85
2022/10/21 08:27:12;;;;;;;0.50;0.50;;;15.00;99.90;;;;;;5016223;27;20872;-85
2022/10/21 08:29:47;;;;;;;0.40;0.40;;;15.00;99.90;;;;;;5036488;27;20057;-83
2022/10/21 08:32:14;;;;;;;0.50;0.50;;;14.90;99.90;;;;;;5049497;27;20530;-85
2022/10/21 08:34:43;;;;;;;0.50;0.50;;;14.90;99.90;;;;;;5046741;27;20058;-83
2022/10/21 08:37:09;;;;;;;0.50;0.50;;;14.90;99.90;;;;;;5034020;27;20386;-84
2022/10/21 08:40:02;;;;;;;0.40;0.40;;;14.90;99.90;;;;;;5005938;27;20051;-85
2022/10/21 08:42:45;;;;;;;0.40;0.40;;;14.80;99.90;;;;;;5050999;27;20051;-85
2022/10/21 08:45:36;;;;;;;0.40;0.40;;;14.90;99.90;;;;;;5025756;27;20818;-83
2022/10/21 08:48:05;;;;;;;0.50;0.50;;;15.10;99.90;;;;;;5043927;27;20411;-83
2022/10/21 08:50:51;;;;;;;0.40;0.40;;;15.20;99.90;;;;;;5048155;27;20409;-85
2022/10/21 08:53:28;;;;;;;0.50;0.50;;;15.30;99.90;;;;;;5052814;27;20115;-86
2022/10/21 08:56:04;;;;;;;0.40;0.40;;;15.50;99.90;;;;;;5046243;27;20050;-85
2022/10/21 08:58:36;;;;;;;0.50;0.50;;;15.60;99.90;;;;;;5024351;27;20047;-84
2022/10/21 09:01:17;;;;;;;0.50;0.50;;;15.70;99.90;;;;;;5062439;27;20400;-86
2022/10/21 09:03:53;;;;;;;0.50;0.50;;;15.80;99.90;;;;;;5057338;27;20543;-85
2022/10/21 09:06:48;;;;;;;0.50;0.50;;;15.90;99.90;;;;;;5055428;27;20064;-85
2022/10/21 09:09:54;;;;;;;;;;;;;;;;;;;;;
2022/10/21 09:12:58;;;;;;;;;;;;;;;;;;;;;
2022/10/21 09:15:43;;;;;;;0.50;0.50;;;16.30;99.90;;;;;;5047624;27;20426;-84
2022/10/21 09:18:14;;;;;;;0.50;0.50;;;16.50;99.90;;;;;;5049013;27;20050;-85
2022/10/21 09:21:03;;;;;;;0.50;0.50;;;16.60;99.90;;;;;;5053830;27;20092;-84
2022/10/21 09:24:10;;;;;;;0.50;0.50;;;16.70;99.90;;;;;;5052005;27;20062;-92
2022/10/21 09:26:51;;;;;;;0.50;0.50;;;16.80;99.90;;;;;;5047694;27;20039;-87
2022/10/21 09:29:35;;;;;;;0.50;0.50;;;16.80;99.90;;;;;;5045150;27;20043;-83
2022/10/21 09:32:27;;;;;;;0.50;0.50;;;16.80;99.90;;;;;;5049546;27;20043;-87
2022/10/21 09:35:40;;;;;;;0.50;0.50;;;16.70;99.90;;;;;;5047370;27;20664;-84
2022/10/21 09:38:28;;;;;;;0.50;0.50;;;16.80;99.90;;;;;;4997065;28;20515;-84
2022/10/21 09:41:02;;;;;;;0.50;0.50;;;17.00;99.90;;;;;;5058649;27;20039;-84
2022/10/21 09:43:38;;;;;;;0.50;0.50;;;17.10;99.90;;;;;;5048496;27;20169;-88
2022/10/21 09:46:15;;;;;;;0.50;0.50;;;17.00;99.90;;;;;;5011918;27;20209;-88
2022/10/21 09:48:44;;;;;;;0.50;0.50;;;17.00;99.90;;;;;;5038592;27;20043;-81
2022/10/21 09:51:17;;;;;;;0.50;0.50;;;17.00;99.90;;;;;;5031143;27;20043;-84
2022/10/21 09:53:59;;;;;;;0.50;0.50;;;17.10;99.90;;;;;;5049847;27;20086;-86
2022/10/21 09:56:32;;;;;;;0.50;0.50;;;17.20;99.90;;;;;;5047227;27;20047;-84
2022/10/21 09:59:12;;;;;;;0.50;0.50;;;17.00;99.90;;;;;;5047012;27;20049;-87
2022/10/21 10:01:46;;;;;;;0.50;0.50;;;17.00;99.90;;;;;;5020877;27;20063;-84
2022/10/21 10:04:33;;;;;;;0.50;0.50;;;17.10;99.90;;;;;;5020018;27;20062;-83
2022/10/21 10:07:20;;;;;;;0.50;0.50;;;17.00;99.90;;;;;;5026747;27;20031;-87
2022/10/21 10:09:49;;;;;;;0.50;0.50;;;17.20;99.90;;;;;;5040191;27;20065;-85
2022/10/21 10:12:21;;;;;;;0.50;0.50;;;17.20;99.90;;;;;;5009001;27;20472;-84
2022/10/21 10:14:56;;;;;;;0.50;0.50;;;17.20;99.90;;;;;;5002802;27;20036;-85
2022/10/21 10:17:38;;;;;;;0.50;0.50;;;17.30;99.90;;;;;;5011616;27;20888;-85
2022/10/21 10:20:32;;;;;;;0.50;0.50;;;17.20;99.90;;;;;;5038339;27;20049;-86
2022/10/21 10:23:10;;;;;;;0.50;0.50;;;17.20;99.90;;;;;;5027010;27;20649;-86
2022/10/21 10:25:39;;;;;;;0.50;0.50;;;17.20;99.90;;;;;;5036519;27;20051;-89
2022/10/21 10:28:23;;;;;;;0.50;0.50;;;17.10;99.90;;;;;;5044186;27;20233;-88
2022/10/21 10:30:56;;;;;;;0.50;0.50;;;17.10;99.90;;;;;;5069832;27;20047;-86
2022/10/21 10:34:10;;;;;;;0.50;0.50;;;17.20;99.90;;;;;;5079563;27;20102;-85
2022/10/21 10:36:41;;;;;;;0.50;0.50;;;17.10;99.90;;;;;;5048888;27;20202;-86
2022/10/21 10:39:23;;;;;;;0.50;0.50;;;17.00;99.90;;;;;;5052594;27;20059;-86
2022/10/21 10:42:31;;;;;;;0.50;0.50;;;17.00;99.90;;;;;;5039556;27;20199;-88
2022/10/21 10:45:13;;;;;;;0.50;0.50;;;17.10;99.90;;;;;;5025533;27;20089;-86
2022/10/21 10:48:03;;;;;;;0.50;0.50;;;17.10;99.90;;;;;;5046263;27;20043;-86
2022/10/21 10:50:57;;;;;;;0.50;0.50;;;17.10;99.90;;;;;;5064946;27;20755;-87
2022/10/21 10:55:00;;;;;;;;;;;;;;;;;;;;;
2022/10/21 10:58:26;;;;;;;0.50;0.50;;;17.20;99.90;;;;;;4994338;28;20052;-93
2022/10/21 11:01:41;;;;;;;;;;;;;;;;;;;;;
2022/10/21 11:04:52;;;;;;;0.50;0.50;;;17.30;99.90;;;;;;4984598;28;20181;-86
2022/10/21 11:07:40;;;;;;;0.50;0.50;;;17.40;99.90;;;;;;4968616;28;20173;-90
2022/10/21 11:11:10;;;;;;;0.50;0.50;;;17.40;99.90;;;;;;4980213;28;20040;-89
2022/10/21 11:14:12;;;;;;;0.50;0.50;;;17.50;99.90;;;;;;5004901;28;21172;-90
2022/10/21 11:17:06;;;;;;;0.50;0.50;;;17.60;99.90;;;;;;5071687;27;20039;-92
2022/10/21 11:46:34;;;;;;;;;;;;;;;;;;;;;
2022/10/21 11:49:44;;;;;;;0.50;0.50;;;17.50;99.90;;;;;;4847952;29;20858;-91
2022/10/21 11:57:11;;;;;;;0.50;0.50;;;17.50;99.90;;;;;;4844710;29;20577;-93
2022/10/21 12:01:31;;;;;;;0.45;0.45;;;17.50;99.90;;;;;;4949113;28;20120;-92
2022/10/21 12:04:24;;;;;;;0.50;0.50;;;17.60;99.90;;;;;;4885224;29;20405;-87
2022/10/21 12:07:15;;;;;;;0.50;0.50;;;17.60;99.90;;;;;;4872345;28;20392;-87
2022/10/21 12:17:30;;;;;;;0.50;0.50;;;17.50;99.90;;;;;;4949707;28;20106;-91
2022/10/21 12:21:07;;;;;;;0.40;0.40;;;17.70;99.90;;;;;;4887904;28;20101;-90
2022/10/21 12:24:32;;;;;;;0.50;0.50;;;17.70;99.90;;;;;;4894552;28;20073;-92
2022/10/21 12:27:17;;;;;;;;;;;17.70;99.90;;;;;;4894367;28;20054;-91
2022/10/21 12:30:29;;;;;;;0.50;0.50;;;17.70;99.90;;;;;;4909892;28;19954;-91
2022/10/21 12:33:55;;;;;;;0.50;0.50;;;17.80;99.90;;;;;;4924386;28;20054;-89
2022/10/21 12:37:23;;;;;;;0.50;0.50;;;17.70;99.90;;;;;;4901799;28;20378;-87
2022/10/21 12:43:28;;;;;;;0.50;0.50;;;17.70;99.90;;;;;;4912438;28;20169;-88
2022/10/21 12:46:09;;;;;;;0.50;0.50;;;17.60;99.90;;;;;;4904791;28;20085;-87
2022/10/21 12:48:57;;;;;;;0.50;0.50;;;17.60;99.90;;;;;;4966098;28;20362;-88
2022/10/21 12:52:20;;;;;;;0.50;0.50;;;17.60;99.90;;;;;;4957457;28;20348;-89
2022/10/21 12:55:29;;;;;;;0.50;0.50;;;17.60;99.90;;;;;;4989109;28;20055;-90
2022/10/21 12:59:02;;;;;;;0.50;0.50;;;17.50;99.90;;;;;;4987165;28;20496;-88
2022/10/21 13:02:03;;;;;;;0.50;0.50;;;17.60;99.90;;;;;;4951330;28;20114;-87
2022/10/21 13:04:38;;;;;;;0.50;0.50;;;17.50;99.90;;;;;;5039973;28;20508;-86
2022/10/21 13:07:37;;;;;;;0.50;0.50;;;17.50;99.90;;;;;;5031683;28;20046;-88
2022/10/21 13:10:55;;;;;;;0.50;0.50;;;17.50;99.90;;;;;;5030860;28;20571;-87
2022/10/21 13:13:39;;;;;;;0.50;0.50;;;17.50;99.90;;;;;;5009341;28;20051;-87
2022/10/21 13:16:29;;;;;;;0.40;0.40;;;17.50;99.90;;;;;;5029406;28;20043;-85
2022/10/21 13:19:27;;;;;;;0.50;0.50;;;17.50;99.90;;;;;;5024757;28;20542;-88
2022/10/21 13:22:37;;;;;;;0.50;0.50;;;17.60;99.90;;;;;;5040315;28;20332;-88
2022/10/21 13:25:24;;;;;;;;;;;;;;;;;;;;;
2022/10/21 13:28:08;;;;;;;0.50;0.50;;;17.50;99.90;;;;;;5048533;28;20481;-88
2022/10/21 13:30:49;;;;;;;0.50;0.50;;;17.40;99.90;;;;;;5033955;28;20157;-87
2022/10/21 13:33:55;;;;;;;0.50;0.50;;;17.40;99.90;;;;;;5037489;27;20575;-87
2022/10/21 13:36:42;;;;;;;0.40;0.40;;;17.40;99.90;;;;;;5033279;28;20083;-86
2022/10/21 13:39:34;;;;;;;0.50;0.50;;;17.50;99.90;;;;;;5060488;28;21160;-90
2022/10/21 13:42:25;;;;;;;0.50;0.50;;;17.70;99.90;;;;;;5068224;28;20053;-86
2022/10/21 13:45:05;;;;;;;0.50;0.50;;;18.00;99.90;;;;;;5065636;28;20180;-88
2022/10/21 13:47:35;;;;;;;0.50;0.50;;;17.90;99.90;;;;;;5052286;28;20046;-87
2022/10/21 13:50:24;;;;;;;0.50;0.50;;;17.90;99.90;;;;;;5046288;28;20127;-88
2022/10/21 13:52:54;;;;;;;0.50;0.50;;;18.00;99.90;;;;;;5050193;27;20059;-89
2022/10/21 13:55:26;;;;;;;0.50;0.50;;;18.00;99.90;;;;;;5039027;27;20069;-87
2022/10/21 13:58:08;;;;;;;0.43;0.43;;;18.00;99.90;;;;;;5038302;27;20099;-86
2022/10/21 14:00:40;;;;;;;0.40;0.40;;;18.20;99.90;;;;;;5035409;27;20046;-86
2022/10/21 14:03:27;;;;;;;0.50;0.50;;;18.10;99.90;;;;;;5023829;27;20058;-89
2022/10/21 14:06:11;;;;;;;0.50;0.50;;;18.10;99.90;;;;;;5033943;27;20082;-86
2022/10/21 14:08:50;;;;;;;0.50;0.50;;;18.10;99.90;;;;;;5058438;27;20871;-88
2022/10/21 14:11:47;;;;;;;0.50;0.50;;;17.90;99.90;;;;;;5061842;27;20134;-86
2022/10/21 14:14:22;;;;;;;0.50;0.50;;;17.90;99.90;;;;;;5055105;27;20039;-85
2022/10/21 14:17:22;;;;;;;0.43;0.43;;;17.90;99.90;;;;;;5058101;27;20422;-87
2022/10/21 14:20:12;;;;;;;0.50;0.50;;;17.90;99.90;;;;;;5054114;27;21091;-85
2022/10/21 14:22:49;;;;;;;0.50;0.50;;;17.90;99.90;;;;;;5058320;27;20501;-85
2022/10/21 14:25:21;;;;;;;0.50;0.50;;;17.80;99.90;;;;;;5052713;27;20105;-89
2022/10/21 14:27:53;;;;;;;0.50;0.50;;;17.70;99.90;;;;;;5055097;27;20051;-87
2022/10/21 14:30:42;;;;;;;0.50;0.50;;;17.70;99.90;;;;;;5033342;27;20128;-86
2022/10/21 14:33:21;;;;;;;0.50;0.50;;;17.60;99.90;;;;;;5029627;27;20051;-86
2022/10/21 14:36:13;;;;;;;0.50;0.50;;;17.50;99.90;;;;;;5029728;27;20051;-89
2022/10/21 14:39:17;;;;;;;0.50;0.50;;;17.50;99.90;;;;;;5052021;27;20032;-86
2022/10/21 14:42:38;;;;;;;0.50;0.50;;;17.50;99.90;;;;;;5045024;27;20066;-85
2022/10/21 14:48:38;;;;;;;0.50;0.50;;;17.40;99.90;;;;;;5060248;27;20058;-87
2022/10/21 14:51:24;;;;;;;;;;;;;;;;;;;;;
2022/10/21 14:54:24;;;;;;;0.50;0.50;;;17.30;99.90;;;;;;5054164;27;20456;-86
2022/10/21 14:56:53;;;;;;;0.50;0.50;;;17.30;99.90;;;;;;5027413;27;20317;-86
2022/10/21 15:00:09;;;;;;;0.50;0.50;;;17.20;99.90;;;;;;5015913;27;20066;-86
2022/10/21 15:06:12;;;;;;;0.50;0.50;;;17.20;99.90;;;;;;5024769;27;20130;-92
2022/10/21 15:09:01;;;;;;;0.50;0.50;;;17.20;99.90;;;;;;5038669;27;20066;-85
2022/10/21 15:11:27;;;;;;;0.50;0.50;;;17.20;99.90;;;;;;5029363;27;20059;-85
2022/10/21 15:17:48;;;;;;;0.50;0.50;;;17.20;99.90;;;;;;5047675;27;20051;-86
2022/10/21 15:20:36;;;;;;;0.50;0.50;;;17.20;99.90;;;;;;5052711;27;20436;-85
2022/10/21 15:23:15;;;;;;;0.50;0.50;;;17.20;99.90;;;;;;5052577;28;20516;-87
2022/10/21 15:26:11;;;;;;;0.50;0.50;;;17.20;99.90;;;;;;5039120;28;21196;-87
2022/10/21 15:28:52;;;;;;;;;;;;;;;;;;;;;
2022/10/21 15:31:26;;;;;;;0.50;0.50;;;17.30;99.90;;;;;;5056634;28;20510;-85
2022/10/21 15:33:57;;;;;;;0.50;0.50;;;17.40;99.90;;;;;;5028424;28;20519;-86
2022/10/21 15:36:38;;;;;;;0.40;0.40;;;17.30;99.90;;;;;;5038512;28;20131;-85
2022/10/21 15:39:10;;;;;;;0.50;0.50;;;17.30;99.90;;;;;;5037162;28;20129;-86
2022/10/21 15:41:57;;;;;;;0.50;0.50;;;17.30;99.90;;;;;;5055119;28;20476;-87
2022/10/21 15:44:39;;;;;;;0.50;0.50;;;17.30;99.90;;;;;;5015837;28;20524;-87